Time;durP1;ratioP1;P1;durP2;ratioP2;P2;SDS_P1;SDS_P2;PMS_P1;PMS_P2;Temp;Humidity;BMP_temperature;BMP_pressure;BME280_temperature;BME280_humidity;BME280_pressure;Samples;Min_cycle;Max_cycle;Signal;HPM_P1;HPM_P2
2021/09/06 00:00:01;;;;;;;;;;;14.10;99.90;;;;;;1891547;75;20310;-70
2021/09/06 00:02:28;;;;;;;;;;;14.20;99.90;;;;;;1884474;75;20198;-70
2021/09/06 00:04:55;;;;;;;;;;;14.10;99.90;;;;;;1885322;75;20445;-69
2021/09/06 00:07:21;;;;;;;;;;;14.00;99.90;;;;;;1903872;75;20138;-69
2021/09/06 00:09:50;;;;;;;;;;;13.90;99.90;;;;;;1904619;74;20868;-68
2021/09/06 00:12:16;;;;;;;;;;;14.00;99.90;;;;;;1897162;75;20175;-69
2021/09/06 00:14:43;;;;;;;;;;;14.00;99.90;;;;;;1899083;74;20469;-69
2021/09/06 00:17:10;;;;;;;;;;;13.80;99.90;;;;;;1884173;75;20131;-68
2021/09/06 00:19:37;;;;;;;;;;;13.90;99.90;;;;;;1893360;75;20171;-69
2021/09/06 00:22:04;;;;;;;;;;;13.90;99.90;;;;;;1894066;74;20454;-69
2021/09/06 00:24:33;;;;;;;;;;;13.90;99.90;;;;;;1911484;74;20267;-69
2021/09/06 00:26:59;;;;;;;;;;;13.80;99.90;;;;;;1911005;75;20490;-67
2021/09/06 00:29:26;;;;;;;;;;;13.70;99.90;;;;;;1903946;75;20415;-69
2021/09/06 00:31:53;;;;;;;;;;;13.80;99.90;;;;;;1903894;75;20202;-69
2021/09/06 00:34:20;;;;;;;;;;;13.80;99.90;;;;;;1899012;74;20240;-68
2021/09/06 00:36:46;;;;;;;;;;;13.70;99.90;;;;;;1883677;75;20154;-66
2021/09/06 00:39:13;;;;;;;;;;;13.50;99.90;;;;;;1900457;75;20197;-68
2021/09/06 00:41:40;;;;;;;;;;;13.50;99.90;;;;;;1883520;75;20195;-68
2021/09/06 00:44:07;;;;;;;;;;;13.70;99.90;;;;;;1890548;74;20238;-67
2021/09/06 00:46:34;;;;;;;;;;;13.60;99.90;;;;;;1909282;75;20583;-68
2021/09/06 00:49:00;;;;;;;;;;;13.60;99.90;;;;;;1904650;75;20150;-68
2021/09/06 00:51:27;;;;;;;;;;;13.50;99.90;;;;;;1886668;75;20870;-68
2021/09/06 00:53:54;;;;;;;;;;;13.40;99.90;;;;;;1897240;74;20245;-68
2021/09/06 00:56:21;;;;;;;;;;;13.40;99.90;;;;;;1905187;75;20450;-69
2021/09/06 00:58:48;;;;;;;;;;;13.50;99.90;;;;;;1890290;75;20206;-68
2021/09/06 01:01:15;;;;;;;;;;;13.50;99.90;;;;;;1887978;75;20127;-69
2021/09/06 01:03:41;;;;;;;;;;;13.60;99.90;;;;;;1903563;74;20895;-68
2021/09/06 01:06:09;;;;;;;;;;;13.40;99.90;;;;;;1904388;75;20232;-69
2021/09/06 01:08:35;;;;;;;;;;;13.30;99.90;;;;;;1885388;75;20157;-69
2021/09/06 01:11:02;;;;;;;;;;;13.30;99.90;;;;;;1884364;75;20499;-68
2021/09/06 01:13:29;;;;;;;;;;;13.30;99.90;;;;;;1895811;74;20146;-68
2021/09/06 01:15:56;;;;;;;;;;;13.10;99.90;;;;;;1901953;75;20235;-68
2021/09/06 01:18:23;;;;;;;;;;;13.20;99.90;;;;;;1894342;75;20252;-69
2021/09/06 01:20:50;;;;;;;;;;;13.20;99.90;;;;;;1905509;75;20419;-68
2021/09/06 01:23:16;;;;;;;;;;;13.30;99.90;;;;;;1912363;75;20231;-69
2021/09/06 01:25:43;;;;;;;;;;;13.20;99.90;;;;;;1910874;74;20467;-69
2021/09/06 01:28:10;;;;;;;;;;;13.20;99.90;;;;;;1904819;75;20146;-68
2021/09/06 01:30:37;;;;;;;;;;;13.30;99.90;;;;;;1890525;75;20206;-68
2021/09/06 01:33:04;;;;;;;;;;;13.30;99.90;;;;;;1905341;75;20416;-69
2021/09/06 01:35:31;;;;;;;;;;;13.20;99.90;;;;;;1894451;74;20120;-68
2021/09/06 01:37:58;;;;;;;;;;;13.10;99.90;;;;;;1898732;74;20131;-68
2021/09/06 01:40:25;;;;;;;;;;;13.10;99.90;;;;;;1885001;75;20152;-68
2021/09/06 01:42:52;;;;;;;;;;;13.00;99.90;;;;;;1894881;75;20136;-68
2021/09/06 01:45:19;;;;;;;;;;;13.00;99.90;;;;;;1888796;75;20210;-68
2021/09/06 01:47:46;;;;;;;;;;;12.90;99.90;;;;;;1897126;75;20154;-69
2021/09/06 01:50:13;;;;;;;;;;;12.90;99.90;;;;;;1888436;75;20220;-68
2021/09/06 01:52:40;;;;;;;;;;;12.90;99.90;;;;;;1911872;75;20209;-69
2021/09/06 01:55:07;;;;;;;;;;;13.00;99.90;;;;;;1905651;74;20154;-69
2021/09/06 01:57:33;;;;;;;;;;;13.00;99.90;;;;;;1899189;75;20234;-69
2021/09/06 02:00:00;;;;;;;;;;;12.90;99.90;;;;;;1900641;75;20193;-69
2021/09/06 02:02:27;;;;;;;;;;;12.80;99.90;;;;;;1903080;75;20177;-69
2021/09/06 02:04:54;;;;;;;;;;;12.80;99.90;;;;;;1898202;74;20437;-69
2021/09/06 02:07:21;;;;;;;;;;;12.80;99.90;;;;;;1905114;74;20215;-68
2021/09/06 02:09:47;;;;;;;;;;;12.80;99.90;;;;;;1895995;74;20174;-68
2021/09/06 02:12:14;;;;;;;;;;;12.60;99.90;;;;;;1889452;74;20179;-69
2021/09/06 02:14:41;;;;;;;;;;;12.40;99.90;;;;;;1905527;74;20224;-68
2021/09/06 02:17:08;;;;;;;;;;;12.50;99.90;;;;;;1909590;75;20201;-68
2021/09/06 02:19:35;;;;;;;;;;;12.60;99.90;;;;;;1907648;75;20150;-68
2021/09/06 02:22:02;;;;;;;;;;;12.50;99.90;;;;;;1903285;74;20789;-68
2021/09/06 02:24:29;;;;;;;;;;;12.60;99.90;;;;;;1910748;74;20491;-69
2021/09/06 02:26:56;;;;;;;;;;;12.40;99.90;;;;;;1903760;75;20181;-69
2021/09/06 02:29:22;;;;;;;;;;;12.20;99.90;;;;;;1905779;75;20205;-69
2021/09/06 02:31:50;;;;;;;;;;;12.40;99.90;;;;;;1884621;76;20123;-69
2021/09/06 02:34:17;;;;;;;;;;;12.40;99.90;;;;;;1909542;74;20197;-69
2021/09/06 02:36:44;;;;;;;;;;;12.30;99.90;;;;;;1914903;75;20182;-69
2021/09/06 02:39:10;;;;;;;;;;;12.30;99.90;;;;;;1908524;75;20189;-69
2021/09/06 02:41:37;;;;;;;;;;;12.30;99.90;;;;;;1914962;75;20177;-69
2021/09/06 02:44:04;;;;;;;;;;;12.20;99.90;;;;;;1903423;74;20174;-68
2021/09/06 02:46:31;;;;;;;;;;;12.20;99.90;;;;;;1891859;75;20229;-69
2021/09/06 02:48:58;;;;;;;;;;;12.20;99.90;;;;;;1884531;75;20429;-69
2021/09/06 02:51:25;;;;;;;;;;;12.30;99.90;;;;;;1884734;75;20148;-69
2021/09/06 02:53:51;;;;;;;;;;;12.40;99.90;;;;;;1891960;75;20160;-69
2021/09/06 02:56:18;;;;;;;;;;;12.20;99.90;;;;;;1893777;75;20393;-69
2021/09/06 02:58:45;;;;;;;;;;;12.10;99.90;;;;;;1901134;75;20222;-68
2021/09/06 03:01:12;;;;;;;;;;;12.20;99.90;;;;;;1900563;75;20463;-69
2021/09/06 03:03:38;;;;;;;;;;;12.10;99.90;;;;;;1906538;74;20154;-68
2021/09/06 03:06:05;;;;;;;;;;;12.20;99.90;;;;;;1905616;75;20478;-68
2021/09/06 03:08:32;;;;;;;;;;;12.10;99.90;;;;;;1903966;75;20150;-68
2021/09/06 03:10:59;;;;;;;;;;;12.10;99.90;;;;;;1905073;75;20719;-68
2021/09/06 03:13:26;;;;;;;;;;;12.00;99.90;;;;;;1896106;75;20193;-69
2021/09/06 03:15:52;;;;;;;;;;;12.10;99.90;;;;;;1902034;74;20142;-68
2021/09/06 03:18:19;;;;;;;;;;;12.20;99.90;;;;;;1904856;74;20200;-69
2021/09/06 03:20:46;;;;;;;;;;;12.10;99.90;;;;;;1906507;75;20234;-69
2021/09/06 03:23:13;;;;;;;;;;;12.10;99.90;;;;;;1892640;75;20128;-69
2021/09/06 03:25:40;;;;;;;;;;;12.20;99.90;;;;;;1884333;75;20201;-68
2021/09/06 03:28:06;;;;;;;;;;;12.10;99.90;;;;;;1912803;75;20420;-68
2021/09/06 03:30:33;;;;;;;;;;;12.00;99.90;;;;;;1905465;75;20125;-68
2021/09/06 03:33:00;;;;;;;;;;;11.80;99.90;;;;;;1907942;75;20197;-70
2021/09/06 03:35:27;;;;;;;;;;;11.90;99.90;;;;;;1903911;72;20122;-74
2021/09/06 03:37:54;;;;;;;;;;;11.90;99.90;;;;;;1915579;75;20180;-74
2021/09/06 03:40:20;;;;;;;;;;;12.00;99.90;;;;;;1904391;75;20242;-74
2021/09/06 03:42:47;;;;;;;;;;;11.70;99.90;;;;;;1911634;75;20128;-75
2021/09/06 03:45:14;;;;;;;;;;;11.80;99.90;;;;;;1885019;75;20184;-74
2021/09/06 03:47:41;;;;;;;;;;;11.90;99.90;;;;;;1885866;75;20175;-75
2021/09/06 03:50:08;;;;;;;;;;;11.80;99.90;;;;;;1893250;75;20138;-73
2021/09/06 03:52:35;;;;;;;;;;;11.90;99.90;;;;;;1915907;75;20201;-73
2021/09/06 03:55:01;;;;;;;;;;;11.80;99.90;;;;;;1920382;75;20118;-73
2021/09/06 03:57:28;;;;;;;;;;;11.70;99.90;;;;;;1915143;73;20292;-75
2021/09/06 03:59:55;;;;;;;;;;;11.60;99.90;;;;;;1915728;75;20149;-74
2021/09/06 04:02:22;;;;;;;;;;;11.60;99.90;;;;;;1913925;75;20156;-73
2021/09/06 04:04:50;;;;;;;;;;;11.60;99.90;;;;;;1900053;75;20216;-73
2021/09/06 04:07:17;;;;;;;;;;;11.70;99.90;;;;;;1888184;75;20495;-75
2021/09/06 04:09:44;;;;;;;;;;;11.80;99.90;;;;;;1892859;75;20123;-74
2021/09/06 04:12:11;;;;;;;;;;;11.60;99.90;;;;;;1899818;75;20585;-72
2021/09/06 04:14:37;;;;;;;;;;;11.70;99.90;;;;;;1895069;75;20261;-73
2021/09/06 04:17:04;;;;;;;;;;;11.60;99.90;;;;;;1905611;75;20239;-73
2021/09/06 04:19:31;;;;;;;;;;;11.60;99.90;;;;;;1887623;75;20433;-73
2021/09/06 04:21:58;;;;;;;;;;;11.40;99.90;;;;;;1883027;75;20218;-73
2021/09/06 04:24:25;;;;;;;;;;;11.50;99.90;;;;;;1883289;75;20191;-73
2021/09/06 04:26:52;;;;;;;;;;;11.60;99.90;;;;;;1882396;76;20121;-73
2021/09/06 04:29:19;;;;;;;;;;;11.60;99.90;;;;;;1916623;75;20172;-74
2021/09/06 04:31:46;;;;;;;;;;;11.60;99.90;;;;;;1921291;75;20246;-72
2021/09/06 04:34:13;;;;;;;;;;;11.40;99.90;;;;;;1903020;75;20160;-72
2021/09/06 04:36:40;;;;;;;;;;;11.40;99.90;;;;;;1912538;75;20173;-73
2021/09/06 04:39:06;;;;;;;;;;;11.50;99.90;;;;;;1893679;75;20395;-73
2021/09/06 04:41:33;;;;;;;;;;;11.40;99.90;;;;;;1904792;75;20385;-74
2021/09/06 04:44:00;;;;;;;;;;;11.50;99.90;;;;;;1886351;75;20163;-73
2021/09/06 04:46:27;;;;;;;;;;;11.50;99.90;;;;;;1905811;75;20235;-72
2021/09/06 04:48:54;;;;;;;;;;;11.50;99.90;;;;;;1898529;75;20191;-72
2021/09/06 04:51:21;;;;;;;;;;;11.50;99.90;;;;;;1884892;75;20163;-73
2021/09/06 04:53:48;;;;;;;;;;;11.50;99.90;;;;;;1895662;75;20177;-73
2021/09/06 04:56:15;;;;;;;;;;;11.60;99.90;;;;;;1921389;75;20169;-73
2021/09/06 04:58:42;;;;;;;;;;;11.50;99.90;;;;;;1886961;75;20206;-73
2021/09/06 05:01:08;;;;;;;;;;;11.40;99.90;;;;;;1899395;75;20167;-73
2021/09/06 05:03:35;;;;;;;;;;;11.40;99.90;;;;;;1909911;75;20410;-73
2021/09/06 05:06:02;;;;;;;;;;;11.40;99.90;;;;;;1905665;75;20165;-72
2021/09/06 05:08:29;;;;;;;;;;;11.40;99.90;;;;;;1915862;75;20438;-72
2021/09/06 05:10:55;;;;;;;;;;;11.30;99.90;;;;;;1917675;75;20122;-73
2021/09/06 05:13:23;;;;;;;;;;;11.30;99.90;;;;;;1893811;75;20579;-73
2021/09/06 05:15:50;;;;;;;;;;;11.40;99.90;;;;;;1894720;75;20176;-74
2021/09/06 05:18:17;;;;;;;;;;;11.30;99.90;;;;;;1921602;75;20444;-73
2021/09/06 05:20:44;;;;;;;;;;;11.30;99.90;;;;;;1884775;75;20154;-73
2021/09/06 05:23:11;;;;;;;;;;;11.30;99.90;;;;;;1892110;75;20472;-73
2021/09/06 05:25:37;;;;;;;;;;;11.30;99.90;;;;;;1885799;75;20136;-73
2021/09/06 05:28:05;;;;;;;;;;;11.40;99.90;;;;;;1921125;74;20226;-73
2021/09/06 05:30:31;;;;;;;;;;;11.30;99.90;;;;;;1887013;75;20436;-71
2021/09/06 05:32:58;;;;;;;;;;;11.40;99.90;;;;;;1921114;75;20180;-72
2021/09/06 05:35:25;;;;;;;;;;;11.50;99.90;;;;;;1911778;75;20414;-73
2021/09/06 05:37:52;;;;;;;;;;;11.50;99.90;;;;;;1909197;75;20128;-73
2021/09/06 05:40:18;;;;;;;;;;;11.50;99.90;;;;;;1905590;75;20531;-72
2021/09/06 05:42:45;;;;;;;;;;;11.50;99.90;;;;;;1893254;75;20182;-73
2021/09/06 05:45:12;;;;;;;;;;;11.60;99.90;;;;;;1899037;75;20168;-75
2021/09/06 05:47:39;;;;;;;;;;;11.70;99.90;;;;;;1910949;75;20445;-74
2021/09/06 05:50:06;;;;;;;;;;;11.70;99.90;;;;;;1896055;75;20198;-75
2021/09/06 05:52:33;;;;;;;;;;;11.80;99.90;;;;;;1904360;75;20228;-74
2021/09/06 05:54:59;;;;;;;;;;;11.80;99.90;;;;;;1897685;75;20215;-74
2021/09/06 05:57:26;;;;;;;;;;;12.00;99.90;;;;;;1894386;75;20122;-74
2021/09/06 05:59:53;;;;;;;;;;;11.90;99.90;;;;;;1892128;75;20182;-74
2021/09/06 06:02:20;;;;;;;;;;;11.90;99.90;;;;;;1884224;75;20206;-75
2021/09/06 06:04:47;;;;;;;;;;;12.00;99.90;;;;;;1890658;75;20512;-75
2021/09/06 06:07:13;;;;;;;;;;;12.00;99.90;;;;;;1888448;75;20171;-75
2021/09/06 06:09:40;;;;;;;;;;;12.20;99.90;;;;;;1894229;74;20161;-75
2021/09/06 06:12:07;;;;;;;;;;;12.30;99.90;;;;;;1882610;76;20113;-75
2021/09/06 06:14:34;;;;;;;;;;;12.40;99.90;;;;;;1913922;75;20208;-76
2021/09/06 06:17:01;;;;;;;;;;;12.50;99.90;;;;;;1917513;75;20114;-77
2021/09/06 06:19:28;;;;;;;;;;;12.50;99.90;;;;;;1899269;75;20202;-73
2021/09/06 06:21:54;;;;;;;;;;;12.70;99.90;;;;;;1907766;75;20181;-73
2021/09/06 06:24:21;;;;;;;;;;;12.70;99.90;;;;;;1912074;75;20232;-73
2021/09/06 06:26:48;;;;;;;;;;;12.90;99.90;;;;;;1903321;75;20179;-75
2021/09/06 06:29:15;;;;;;;;;;;13.00;99.90;;;;;;1884970;75;20243;-74
2021/09/06 06:31:42;;;;;;;;;;;13.20;99.90;;;;;;1891263;75;20124;-73
2021/09/06 06:34:08;;;;;;;;;;;13.30;99.90;;;;;;1907299;75;20169;-73
2021/09/06 06:36:35;;;;;;;;;;;13.40;99.90;;;;;;1922321;75;20149;-74
2021/09/06 06:39:02;;;;;;;;;;;13.50;99.90;;;;;;1912405;75;20175;-74
2021/09/06 06:41:29;;;;;;;;;;;13.70;99.90;;;;;;1894933;75;20177;-73
2021/09/06 06:43:56;;;;;;;;;;;13.70;99.90;;;;;;1910755;75;20207;-73
2021/09/06 06:46:23;;;;;;;;;;;13.70;99.90;;;;;;1905557;75;20168;-74
2021/09/06 06:48:49;;;;;;;;;;;13.70;99.90;;;;;;1907199;75;20159;-73
2021/09/06 06:51:16;;;;;;;;;;;13.80;99.90;;;;;;1896557;75;20128;-74
2021/09/06 06:53:43;;;;;;;;;;;13.80;99.90;;;;;;1888918;75;20212;-75
2021/09/06 06:56:12;;;;;;;;;;;13.90;99.90;;;;;;1891624;75;20381;-75
2021/09/06 06:58:39;;;;;;;;;;;13.90;99.90;;;;;;1891241;74;20117;-75
2021/09/06 07:01:05;;;;;;;;;;;14.10;99.90;;;;;;1896588;74;20481;-74
2021/09/06 07:03:32;;;;;;;;;;;14.20;99.90;;;;;;1901935;75;20170;-74
2021/09/06 07:05:59;;;;;;;;;;;14.30;99.90;;;;;;1913279;75;20443;-74
2021/09/06 07:08:26;;;;;;;;;;;14.50;99.90;;;;;;1883221;75;20159;-74
2021/09/06 07:10:53;;;;;;;;;;;14.60;99.90;;;;;;1887022;75;20114;-72
2021/09/06 07:13:19;;;;;;;;;;;14.60;99.90;;;;;;1892542;75;20172;-72
2021/09/06 07:15:46;;;;;;;;;;;14.70;99.90;;;;;;1897249;75;20099;-73
2021/09/06 07:18:13;;;;;;;;;;;14.70;99.90;;;;;;1884121;75;20172;-72
2021/09/06 07:20:40;;;;;;;;;;;14.80;99.90;;;;;;1885750;75;20183;-73
2021/09/06 07:23:07;;;;;;;;;;;14.90;99.90;;;;;;1890221;75;20474;-72
2021/09/06 07:25:33;;;;;;;;;;;15.00;99.90;;;;;;1894968;73;20184;-74
2021/09/06 07:28:00;;;;;;;;;;;15.00;99.90;;;;;;1915001;75;20431;-72
2021/09/06 07:30:28;;;;;;;;;;;15.10;99.90;;;;;;1909930;75;20172;-73
2021/09/06 07:32:56;;;;;;;;;;;15.10;99.90;;;;;;1919181;75;20173;-72
2021/09/06 07:35:23;;;;;;;;;;;15.20;99.90;;;;;;1905863;75;20109;-72
2021/09/06 07:37:51;;;;;;;;;;;15.30;99.90;;;;;;1890656;75;20206;-73
2021/09/06 07:40:17;;;;;;;;;;;15.40;99.90;;;;;;1899555;75;20187;-72
2021/09/06 07:42:46;;;;;;;;;;;15.60;99.90;;;;;;1891350;75;20181;-71
2021/09/06 07:45:13;;;;;;;;;;;15.60;99.90;;;;;;1899368;75;20191;-72
2021/09/06 07:47:40;;;;;;;;;;;15.70;99.90;;;;;;1894872;73;20214;-72
2021/09/06 07:50:08;;;;;;;;;;;15.80;99.90;;;;;;1890279;75;20161;-72
2021/09/06 07:52:35;;;;;;;;;;;15.80;99.90;;;;;;1895957;75;20168;-74
2021/09/06 07:55:06;;;;;;;;;;;15.80;99.90;;;;;;1880899;75;20265;-72
2021/09/06 07:57:33;;;;;;;;;;;15.90;99.90;;;;;;1897705;75;20432;-72
2021/09/06 08:00:00;;;;;;;;;;;15.90;99.90;;;;;;1897481;75;20183;-73
2021/09/06 08:02:27;;;;;;;;;;;16.00;99.90;;;;;;1889911;75;20238;-72
2021/09/06 08:04:54;;;;;;;;;;;16.00;99.90;;;;;;1893280;75;20543;-72
2021/09/06 08:07:20;;;;;;;;;;;16.10;99.90;;;;;;1891138;75;20179;-72
2021/09/06 08:09:47;;;;;;;;;;;16.20;99.90;;;;;;1892742;75;20383;-73
2021/09/06 08:12:14;;;;;;;;;;;16.20;99.90;;;;;;1883267;75;20207;-72
2021/09/06 08:14:41;;;;;;;;;;;16.10;99.90;;;;;;1891783;75;20513;-72
2021/09/06 08:17:07;;;;;;;;;;;16.10;99.90;;;;;;1888859;75;20228;-72
2021/09/06 08:19:34;;;;;;;;;;;16.10;99.90;;;;;;1893084;75;20468;-72
2021/09/06 08:22:01;;;;;;;;;;;16.10;99.90;;;;;;1887441;75;20163;-72
2021/09/06 08:24:28;;;;;;;;;;;16.20;99.90;;;;;;1884573;75;20110;-72
2021/09/06 08:26:55;;;;;;;;;;;16.20;99.90;;;;;;1887560;75;20226;-72
2021/09/06 08:29:21;;;;;;;;;;;16.30;99.90;;;;;;1901778;73;20243;-72
2021/09/06 08:31:48;;;;;;;;;;;16.40;99.90;;;;;;1905916;73;20638;-71
2021/09/06 08:34:15;;;;;;;;;;;16.50;99.90;;;;;;1891517;73;20280;-72
2021/09/06 08:36:42;;;;;;;;;;;16.50;99.90;;;;;;1893323;73;20234;-72
2021/09/06 08:39:09;;;;;;;;;;;16.60;99.90;;;;;;1894211;75;20264;-73
2021/09/06 08:41:36;;;;;;;;;;;16.60;99.90;;;;;;1889796;75;20175;-72
2021/09/06 08:44:03;;;;;;;;;;;16.70;99.90;;;;;;1894020;75;20155;-72
2021/09/06 08:46:30;;;;;;;;;;;16.80;99.90;;;;;;1889043;75;20175;-72
2021/09/06 08:48:57;;;;;;;;;;;16.80;99.90;;;;;;1890818;75;20148;-72
2021/09/06 08:51:24;;;;;;;;;;;16.90;99.90;;;;;;1891135;75;20179;-72
2021/09/06 08:53:50;;;;;;;;;;;17.10;99.90;;;;;;1890261;73;20187;-72
2021/09/06 08:56:17;;;;;;;;;;;17.10;99.90;;;;;;1892210;74;20236;-72
2021/09/06 08:58:44;;;;;;;;;;;17.20;99.90;;;;;;1885810;75;20215;-73
2021/09/06 09:01:11;;;;;;;;;;;17.20;99.90;;;;;;1889103;75;20897;-73
2021/09/06 09:03:38;;;;;;;;;;;17.20;99.90;;;;;;1892564;75;20211;-72
2021/09/06 09:06:06;;;;;;;;;;;17.30;99.90;;;;;;1884534;75;20124;-72
2021/09/06 09:08:33;;;;;;;;;;;17.50;99.90;;;;;;1884982;75;20180;-72
2021/09/06 09:11:01;;;;;;;;;;;17.50;99.90;;;;;;1890769;75;20234;-73
2021/09/06 09:13:29;;;;;;;;;;;17.60;99.90;;;;;;1914320;75;20353;-72
2021/09/06 09:15:56;;;;;;;;;;;17.90;99.90;;;;;;1889328;73;20517;-73
2021/09/06 09:18:23;;;;;;;;;;;17.80;99.90;;;;;;1898788;73;20182;-73
2021/09/06 09:20:52;;;;;;;;;;;17.90;99.90;;;;;;1918923;75;20177;-72
2021/09/06 09:23:18;;;;;;;;;;;18.00;99.90;;;;;;1907339;75;20163;-73
2021/09/06 09:25:45;;;;;;;;;;;18.00;99.90;;;;;;1893654;75;20140;-73
2021/09/06 09:28:13;;;;;;;;;;;18.10;99.90;;;;;;1892608;75;20186;-73
2021/09/06 09:30:41;;;;;;;;;;;18.30;99.90;;;;;;1886638;75;20171;-72
2021/09/06 09:33:09;;;;;;;;;;;18.40;99.90;;;;;;1888325;75;20224;-72
2021/09/06 09:35:36;;;;;;;;;;;18.40;99.90;;;;;;1916263;70;20153;-73
2021/09/06 09:38:04;;;;;;;;;;;18.70;99.90;;;;;;1925334;73;20110;-73
2021/09/06 09:40:32;;;;;;;;;;;18.70;99.90;;;;;;1922887;73;20115;-73
2021/09/06 09:42:59;;;;;;;;;;;18.70;99.90;;;;;;1924833;73;20196;-74
2021/09/06 09:45:26;;;;;;;;;;;18.70;99.90;;;;;;1915170;73;20201;-73
2021/09/06 09:47:53;;;;;;;;;;;18.80;99.90;;;;;;1911818;73;20165;-74
2021/09/06 09:50:22;;;;;;;;;;;18.90;99.90;;;;;;1912287;73;20220;-74
2021/09/06 09:52:51;;;;;;;;;;;18.90;99.90;;;;;;1917980;73;20251;-74
2021/09/06 09:55:18;;;;;;;;;;;18.90;99.90;;;;;;1913426;73;20186;-74
2021/09/06 09:57:44;;;;;;;;;;;18.80;99.90;;;;;;1915137;73;20174;-75
2021/09/06 10:00:16;;;;;;;;;;;18.80;99.90;;;;;;1912222;73;20202;-74
2021/09/06 10:02:41;;;;;;;;;;;18.80;99.90;;;;;;1912800;73;20220;-74
2021/09/06 10:05:09;;;;;;;;;;;18.70;99.90;;;;;;1915284;73;20208;-74
2021/09/06 10:07:37;;;;;;;;;;;18.80;99.90;;;;;;1917680;73;20199;-73
2021/09/06 10:10:17;;;;;;;;;;;18.90;99.90;;;;;;1914864;73;20126;-74
2021/09/06 10:12:43;;;;;;;;;;;18.80;99.90;;;;;;1913769;73;20220;-74
2021/09/06 10:15:10;;;;;;;;;;;19.00;99.90;;;;;;1916181;73;20450;-73
2021/09/06 10:17:43;;;;;;;;;;;19.00;99.90;;;;;;1915873;73;20236;-74
2021/09/06 10:20:11;;;;;;;;;;;19.20;99.90;;;;;;1917826;73;20181;-74
2021/09/06 10:22:38;;;;;;;;;;;19.30;99.90;;;;;;1915300;73;20247;-73
2021/09/06 10:25:07;;;;;;;;;;;19.50;99.90;;;;;;1911712;73;20226;-74
2021/09/06 10:27:36;;;;;;;;;;;19.70;99.90;;;;;;1916294;73;20185;-73
2021/09/06 10:30:04;;;;;;;;;;;19.80;99.90;;;;;;1916273;73;20224;-74
2021/09/06 10:32:36;;;;;;;;;;;20.00;99.90;;;;;;1915572;73;20486;-74
2021/09/06 10:35:04;;;;;;;;;;;20.10;99.90;;;;;;1909009;73;20110;-74
2021/09/06 10:37:34;;;;;;;;;;;20.10;99.90;;;;;;1917593;73;20157;-74
2021/09/06 10:39:59;;;;;;;;;;;20.10;99.90;;;;;;1915629;73;20180;-74
2021/09/06 10:42:28;;;;;;;;;;;20.00;99.90;;;;;;1915950;73;20267;-75
2021/09/06 10:47:43;;;;;;;;;;;20.10;99.90;;;;;;1947099;71;20212;-74
2021/09/06 10:50:11;;;;;;;;;;;20.00;99.90;;;;;;1934103;73;20213;-74
2021/09/06 10:52:38;;;;;;;;;;;20.10;99.90;;;;;;1935180;73;20288;-76
2021/09/06 10:55:04;;;;;;;;;;;20.10;99.90;;;;;;1924112;73;21048;-76
2021/09/06 10:57:33;;;;;;;;;;;20.30;99.90;;;;;;1921570;73;20243;-76
2021/09/06 11:00:00;;;;;;;;;;;20.50;99.90;;;;;;1922066;74;20145;-76
2021/09/06 11:02:26;;;;;;;;;;;20.70;99.90;;;;;;1908080;73;20187;-75
2021/09/06 11:04:54;;;;;;;;;;;20.80;99.90;;;;;;1925074;73;20173;-76
2021/09/06 11:07:21;;;;;;;;;;;20.80;99.90;;;;;;1929824;73;20339;-76
2021/09/06 11:09:48;;;;;;;;;;;20.70;99.90;;;;;;1929879;74;20129;-75
2021/09/06 11:12:15;;;;;;;;;;;20.80;99.90;;;;;;1915304;74;20167;-76
2021/09/06 11:14:43;;;;;;;;;;;20.80;99.90;;;;;;1923689;74;20184;-76
2021/09/06 11:17:20;;;;;;;;;;;20.80;99.90;;;;;;1917636;74;20119;-76
2021/09/06 11:19:48;;;;;;;;;;;20.70;99.90;;;;;;1896843;75;20112;-75
2021/09/06 11:22:17;;;;;;;;;;;20.60;99.90;;;;;;1913720;74;20226;-76
2021/09/06 11:24:44;;;;;;;;;;;20.30;99.90;;;;;;1920891;73;20110;-76
2021/09/06 11:27:28;;;;;;;;;;;20.40;99.90;;;;;;1926791;73;20473;-76
2021/09/06 11:29:55;;;;;;;;;;;20.70;99.90;;;;;;1926817;73;20145;-76
2021/09/06 11:32:21;;;;;;;;;;;20.90;99.90;;;;;;1917009;74;20232;-76
2021/09/06 11:34:49;;;;;;;;;;;21.00;99.90;;;;;;1930234;74;20145;-76
2021/09/06 11:37:17;;;;;;;;;;;21.00;99.90;;;;;;1936664;74;20113;-77
2021/09/06 11:39:45;;;;;;;;;;;21.10;99.90;;;;;;1929889;73;20481;-76
2021/09/06 11:42:12;;;;;;;;;;;21.30;99.90;;;;;;1929434;74;20567;-76
2021/09/06 11:44:39;;;;;;;;;;;21.30;99.90;;;;;;1908059;74;20170;-76
2021/09/06 11:47:06;;;;;;;;;;;21.50;99.90;;;;;;1901037;74;20104;-76
2021/09/06 11:49:33;;;;;;;;;;;21.60;99.90;;;;;;1907435;74;20124;-76
2021/09/06 11:52:06;;;;;;;;;;;21.70;99.90;;;;;;1903629;74;20164;-77
2021/09/06 11:54:35;;;;;;;;;;;21.80;99.90;;;;;;1930318;74;20194;-77
2021/09/06 11:57:01;;;;;;;;;;;21.80;99.90;;;;;;1924631;74;20207;-76
2021/09/06 11:59:29;;;;;;;;;;;22.00;99.90;;;;;;1918570;74;20176;-76
2021/09/06 12:01:56;;;;;;;;;;;22.20;99.90;;;;;;1926067;73;20523;-77
2021/09/06 12:04:23;;;;;;;;;;;22.30;99.90;;;;;;1918336;74;20108;-76
2021/09/06 12:06:50;;;;;;;;;;;22.40;99.90;;;;;;1913154;74;20476;-76
2021/09/06 12:09:17;;;;;;;;;;;22.50;99.90;;;;;;1904737;74;20131;-76
2021/09/06 12:11:46;;;;;;;;;;;22.60;99.90;;;;;;1908365;74;20203;-76
2021/09/06 12:14:12;;;;;;;;;;;22.40;99.90;;;;;;1926279;74;20440;-75
2021/09/06 12:16:39;;;;;;;;;;;22.20;99.90;;;;;;1925329;74;20161;-76
2021/09/06 12:19:17;;;;;;;;;;;22.30;99.90;;;;;;1922097;74;20149;-76
2021/09/06 12:21:44;;;;;;;;;;;22.40;99.90;;;;;;1922669;74;20126;-75
2021/09/06 12:24:11;;;;;;;;;;;22.50;99.90;;;;;;1914449;74;20207;-76
2021/09/06 12:26:39;;;;;;;;;;;22.90;99.90;;;;;;1899983;74;20209;-76
2021/09/06 12:29:06;;;;;;;;;;;22.80;99.90;;;;;;1911037;74;20204;-76
2021/09/06 12:31:41;;;;;;;;;;;22.70;99.90;;;;;;1912749;74;20197;-76
2021/09/06 12:34:10;;;;;;;;;;;22.70;99.90;;;;;;1917520;75;20189;-76
2021/09/06 12:36:36;;;;;;;;;;;22.60;99.90;;;;;;1917205;74;20335;-76
2021/09/06 12:39:03;;;;;;;;;;;22.50;99.90;;;;;;1911202;74;20120;-76
2021/09/06 12:41:30;;;;;;;;;;;22.40;99.90;;;;;;1898303;74;20245;-74
2021/09/06 12:43:57;;;;;;;;;;;22.40;99.90;;;;;;1921348;74;20219;-74
2021/09/06 12:46:26;;;;;;;;;;;22.60;99.90;;;;;;1927615;74;20149;-74
2021/09/06 12:48:53;;;;;;;;;;;22.50;99.90;;;;;;1928555;74;20160;-74
2021/09/06 12:51:19;;;;;;;;;;;22.60;99.90;;;;;;1925188;74;20161;-74
2021/09/06 12:53:46;;;;;;;;;;;22.60;99.90;;;;;;1904354;74;20108;-73
2021/09/06 12:56:13;;;;;;;;;;;22.60;99.90;;;;;;1918827;74;20475;-73
2021/09/06 12:58:40;;;;;;;;;;;22.90;99.90;;;;;;1918147;74;20134;-73
2021/09/06 13:01:07;;;;;;;;;;;23.40;99.90;;;;;;1927235;73;20212;-73
2021/09/06 13:03:33;;;;;;;;;;;23.70;99.90;;;;;;1927804;74;20184;-74
2021/09/06 13:06:00;;;;;;;;;;;23.60;99.90;;;;;;1927984;74;20115;-74
2021/09/06 13:08:28;;;;;;;;;;;23.30;99.90;;;;;;1918163;75;20177;-74
2021/09/06 13:10:55;;;;;;;;;;;23.30;99.90;;;;;;1918261;74;20173;-73
2021/09/06 13:13:22;;;;;;;;;;;23.50;99.90;;;;;;1895842;76;20179;-74
2021/09/06 13:15:49;;;;;;;;;;;23.50;99.90;;;;;;1920887;74;20125;-74
2021/09/06 13:18:17;;;;;;;;;;;23.60;99.90;;;;;;1929364;74;20176;-74
2021/09/06 13:20:44;;;;;;;;;;;23.50;99.90;;;;;;1926072;74;20150;-74
2021/09/06 13:23:11;;;;;;;;;;;23.30;99.90;;;;;;1915485;74;20112;-74
2021/09/06 13:25:37;;;;;;;;;;;23.20;99.90;;;;;;1918177;74;20165;-74
2021/09/06 13:28:05;;;;;;;;;;;23.30;99.90;;;;;;1913773;74;20124;-74
2021/09/06 13:30:32;;;;;;;;;;;23.40;99.90;;;;;;1918157;74;20235;-74
2021/09/06 13:32:58;;;;;;;;;;;23.20;99.90;;;;;;1920255;74;20130;-75
2021/09/06 13:35:25;;;;;;;;;;;23.10;99.90;;;;;;1913918;74;20475;-75
2021/09/06 13:37:52;;;;;;;;;;;22.90;99.90;;;;;;1927210;73;20188;-76
2021/09/06 13:40:19;;;;;;;;;;;22.70;99.90;;;;;;1913710;74;20118;-74
2021/09/06 13:42:46;;;;;;;;;;;22.50;99.90;;;;;;1922664;73;20474;-73
2021/09/06 13:45:12;;;;;;;;;;;22.30;99.90;;;;;;1917757;73;20267;-74
2021/09/06 13:47:39;;;;;;;;;;;22.20;99.90;;;;;;1911979;73;20401;-74
2021/09/06 13:50:06;;;;;;;;;;;22.20;99.90;;;;;;1916131;73;20221;-73
2021/09/06 13:52:33;;;;;;;;;;;22.20;99.90;;;;;;1911700;73;20160;-73
2021/09/06 13:55:00;;;;;;;;;;;22.10;99.90;;;;;;1913506;74;20188;-73
2021/09/06 13:57:27;;;;;;;;;;;22.00;99.90;;;;;;1915664;74;20238;-73
2021/09/06 13:59:54;;;;;;;;;;;21.90;99.90;;;;;;1918648;73;20205;-73
2021/09/06 14:02:21;;;;;;;;;;;21.80;99.90;;;;;;1919301;74;20214;-74
2021/09/06 14:04:48;;;;;;;;;;;21.80;99.90;;;;;;1924167;73;20188;-74
2021/09/06 14:07:15;;;;;;;;;;;21.70;99.90;;;;;;1916534;73;20203;-73
2021/09/06 14:09:41;;;;;;;;;;;21.70;99.90;;;;;;1922133;73;20216;-74
2021/09/06 14:12:11;;;;;;;;;;;21.50;99.90;;;;;;1924436;74;20224;-74
2021/09/06 14:14:38;;;;;;;;;;;21.40;99.90;;;;;;1918055;74;20186;-74
2021/09/06 14:17:05;;;;;;;;;;;21.40;99.90;;;;;;1922776;74;20223;-74